Atlantic Sky — 2JOM5 — position and weather

sailwx.info

Track history (hours):
 
Tides and Currents Weather Stations Pressure Air Temp Water Temp Dewpoint Dewpoint Depression Visibility Wind Speed Wind Dir Waves Ship Positions

Atlantic Sky

Last reported at 2017-Dec-04 10:30 UTC. Time now 2017-Dec-14 15:13 UTC.
Position N 36°51' W 076°20'.
Warning: this ship's position is 10 days out of date.

Length 296 m; draft 9.7 m.

Type: Cargo ship. MMSI: 235117615.

Date/timePositionNaut miles runAvg speedWind from/ knotsBaromVisibWave heightAir tempDewpointWater temp
2017-Dec-04 10:30N 36°51' W 076°20'0 0.2
2017-Dec-04 10:00N 36°51' W 076°20'1 1.2
2017-Dec-04 09:30N 36°52' W 076°20'4 8.5
2017-Dec-04 09:00N 36°56' W 076°20'810.4
2017-Dec-04 08:16N 36°60' W 076°12'415.3
2017-Dec-04 08:00N 36°59' W 076°07'612.5
2017-Dec-04 07:30N 36°57' W 075°59'4 7.8
2017-Dec-04 07:00N 37°00' W 076°01'1018.1
2017-Dec-04 06:28N 37°08' W 076°09'4916.0
2017-Dec-04 03:23N 37°57' W 076°11'717.5
2017-Dec-04 02:58N 38°04' W 076°13'4617.8
2017-Dec-04 00:24N 38°49' W 076°25'717.4
2017-Dec-04 00:00N 38°56' W 076°23'815.3
2017-Dec-03 23:30N 39°04' W 076°24'713.5
2017-Dec-03 23:00N 39°10' W 076°26'611.0
2017-Dec-03 22:30N 39°13' W 076°32'3 6.1
2017-Dec-03 22:00N 39°15' W 076°35'0 0.2
2017-Dec-03 21:30N 39°15' W 076°35'0 0.0
2017-Dec-03 21:00N 39°15' W 076°35'0 0.0
2017-Dec-03 20:30N 39°15' W 076°35'0 0.0
2017-Dec-03 20:00N 39°15' W 076°35'0 0.0
2017-Dec-03 19:30N 39°15' W 076°35'0 0.0
2017-Dec-03 19:00N 39°15' W 076°35'0 0.0
2017-Dec-03 18:30N 39°15' W 076°35'0 0.0
2017-Dec-03 18:00N 39°15' W 076°35'0 0.0
2017-Dec-03 17:30N 39°15' W 076°35'0 0.0
2017-Dec-03 17:00N 39°15' W 076°35'0 0.0
2017-Dec-03 16:30N 39°15' W 076°35'0 0.0
2017-Dec-03 16:00N 39°15' W 076°35'0 0.0
2017-Dec-03 15:30N 39°15' W 076°35'0 0.0
2017-Dec-03 15:00N 39°15' W 076°35'0 0.0
2017-Dec-03 14:30N 39°15' W 076°35'0 0.0
2017-Dec-03 14:00N 39°15' W 076°35'0 0.0
2017-Dec-03 13:27N 39°15' W 076°35'0 0.0
2017-Dec-03 13:00N 39°15' W 076°35'0 0.0
2017-Dec-03 12:30N 39°15' W 076°35'0 0.0
2017-Dec-03 12:00N 39°15' W 076°35'0 0.0
2017-Dec-03 11:30N 39°15' W 076°35'0 0.1
2017-Dec-03 11:01N 39°15' W 076°35'1 1.3
2017-Dec-03 10:30N 39°15' W 076°34'1 2.2
2017-Dec-03 10:01N 39°15' W 076°33'0 0.0
2017-Dec-03 09:31N 39°15' W 076°33'0 0.0
2017-Dec-03 08:57N 39°15' W 076°33'0 0.0
2017-Dec-03 08:27N 39°15' W 076°33'0 0.0
2017-Dec-03 07:58N 39°15' W 076°33'0 0.0
2017-Dec-03 07:31N 39°15' W 076°33'0 0.0
2017-Dec-03 07:00N 39°15' W 076°33'0 0.0
2017-Dec-03 06:28N 39°15' W 076°33'0 0.0
2017-Dec-03 05:58N 39°15' W 076°33'0 0.0
2017-Dec-03 05:27N 39°15' W 076°33'0 0.0
2017-Dec-03 04:58N 39°15' W 076°33'0 0.0
2017-Dec-03 04:31N 39°15' W 076°33'0 0.0
2017-Dec-03 04:00N 39°15' W 076°33'0 0.0
2017-Dec-03 03:31N 39°15' W 076°33'0 0.0
2017-Dec-03 03:01N 39°15' W 076°33'0 0.0
2017-Dec-03 02:30N 39°15' W 076°33'0 0.0
2017-Dec-03 02:00N 39°15' W 076°33'0 0.0
2017-Dec-03 01:24N 39°15' W 076°33'0 0.0
2017-Dec-03 01:00N 39°15' W 076°33'0 0.0
2017-Dec-03 00:30N 39°15' W 076°33'0 0.0
2017-Dec-03 00:00N 39°15' W 076°33'0 0.0
2017-Dec-02 23:30N 39°15' W 076°33'1 1.0
2017-Dec-02 23:00N 39°15' W 076°32'0 0.8
2017-Dec-02 22:28N 39°14' W 076°32'0 0.0
2017-Dec-02 21:58N 39°14' W 076°32'0 0.0
2017-Dec-02 21:28N 39°14' W 076°32'0 0.0
2017-Dec-02 20:58N 39°14' W 076°32'0 0.0
2017-Dec-02 20:28N 39°14' W 076°32'0 0.0
2017-Dec-02 19:58N 39°14' W 076°32'0 0.0
2017-Dec-02 19:28N 39°14' W 076°32'0 0.0
2017-Dec-02 18:58N 39°14' W 076°32'0 0.0
2017-Dec-02 18:28N 39°14' W 076°32'0 0.0
2017-Dec-02 17:58N 39°14' W 076°32'0 0.0
2017-Dec-02 17:28N 39°14' W 076°32'0 0.0
2017-Dec-02 16:58N 39°14' W 076°32'0 0.0
2017-Dec-02 16:28N 39°14' W 076°32'0 0.0
2017-Dec-02 15:58N 39°14' W 076°32'0 0.0
2017-Dec-02 15:28N 39°14' W 076°32'0 0.0
2017-Dec-02 14:58N 39°14' W 076°32'0 0.0
2017-Dec-02 14:28N 39°14' W 076°32'0 0.0
2017-Dec-02 13:58N 39°14' W 076°32'0 0.0
2017-Dec-02 13:28N 39°14' W 076°32'0 0.0
2017-Dec-02 12:55N 39°14' W 076°32'0 0.0
2017-Dec-02 12:28N 39°14' W 076°32'0 0.0
2017-Dec-02 11:58N 39°14' W 076°32'0 0.0
2017-Dec-02 11:28N 39°14' W 076°32'0 0.0
2017-Dec-02 10:58N 39°14' W 076°32'0 0.0
2017-Dec-02 10:28N 39°14' W 076°32'0 0.0
2017-Dec-02 09:58N 39°14' W 076°32'0 0.0
2017-Dec-02 09:25N 39°14' W 076°32'0 0.0
2017-Dec-02 08:58N 39°14' W 076°32'0 0.0
2017-Dec-02 08:28N 39°14' W 076°32'0 0.0
2017-Dec-02 07:58N 39°14' W 076°32'0 0.0
2017-Dec-02 07:28N 39°14' W 076°32'0 0.0
2017-Dec-02 06:58N 39°14' W 076°32'0 0.0
2017-Dec-02 06:28N 39°14' W 076°32'0 0.0
2017-Dec-02 05:58N 39°14' W 076°32'0 0.0
2017-Dec-02 05:28N 39°14' W 076°32'0 0.0
2017-Dec-02 04:58N 39°14' W 076°32'0 0.0
2017-Dec-02 04:28N 39°14' W 076°32'1 1.1
2017-Dec-02 04:01N 39°14' W 076°32'3 6.7
2017-Dec-02 03:31N 39°12' W 076°29'611.7
2017-Dec-02 03:00N 39°08' W 076°24'713.7
2017-Dec-02 02:29N 39°00' W 076°23'715.1
2017-Dec-02 02:00N 38°53' W 076°24'5116.2
2017-Dec-01 22:50N 38°02' W 076°13'6014.4
2017-Dec-01 18:42N 37°03' W 076°05'313.2
2017-Dec-01 18:30N 37°01' W 076°03'611.1
2017-Dec-01 18:00N 36°57' W 075°58'4 8.1
2017-Dec-01 17:30N 36°55' W 075°54'4 8.5
2017-Dec-01 17:00N 36°52' W 075°50'4 8.7
2017-Dec-01 16:30N 36°52' W 075°45'6312.6
2017-Dec-01 11:32N 37°43' W 074°58'015.4
2017-Dec-01 11:30N 37°43' W 074°57'1015.6
2017-Dec-01 10:54N 37°51' W 074°50'1215.3
2017-Dec-01 10:08N 38°01' W 074°42'6115.0
2017-Dec-01 06:06N 38°57' W 074°14'115.1
2017-Dec-01 06:00N 38°58' W 074°13'815.1
2017-Dec-01 05:29N 39°06' W 074°10'815.2
2017-Dec-01 04:57N 39°13' W 074°06'715.2
2017-Dec-01 04:31N 39°20' W 074°03'815.2
2017-Dec-01 04:00N 39°27' W 073°60'815.4
2017-Dec-01 03:31N 39°34' W 073°57'815.7
2017-Dec-01 03:00N 39°42' W 073°53'917.0
2017-Dec-01 02:30N 39°50' W 073°51'917.4
2017-Dec-01 02:00N 39°58' W 073°50'915.8
2017-Dec-01 01:25N 40°08' W 073°50'1910.3
2017-Nov-30 23:33N 40°27' W 073°49'0 8.1
2017-Nov-30 23:30N 40°27' W 073°49'5 9.2
2017-Nov-30 23:00N 40°29' W 073°55'611.6
2017-Nov-30 22:30N 40°32' W 074°01'612.7
2017-Nov-30 22:00N 40°38' W 074°03'4 7.3
2017-Nov-30 21:31N 40°39' W 074°08'1 2.6
2017-Nov-30 21:00N 40°40' W 074°09'0 0.0
2017-Nov-30 20:24N 40°40' W 074°09'0 0.0
2017-Nov-30 20:00N 40°40' W 074°09'0 0.0
2017-Nov-30 19:30N 40°40' W 074°09'0 0.0
2017-Nov-30 18:54N 40°40' W 074°09'0 0.0
2017-Nov-30 18:30N 40°40' W 074°09'0 0.0
2017-Nov-30 18:00N 40°40' W 074°09'0 0.0
2017-Nov-30 17:30N 40°40' W 074°09'0 0.0
2017-Nov-30 17:00N 40°40' W 074°09'0 0.0
2017-Nov-30 16:30N 40°40' W 074°09'0 0.0
2017-Nov-30 16:00N 40°40' W 074°09'0 0.0
2017-Nov-30 15:30N 40°40' W 074°09'0 0.0
2017-Nov-30 15:00N 40°40' W 074°09'0 0.0
2017-Nov-30 14:30N 40°40' W 074°09'0 0.0
2017-Nov-30 14:00N 40°40' W 074°09'0 0.0
2017-Nov-30 13:30N 40°40' W 074°09'0 0.0
2017-Nov-30 12:54N 40°40' W 074°09'0 0.0
2017-Nov-30 12:30N 40°40' W 074°09'0 0.0
2017-Nov-30 12:00N 40°40' W 074°09'0 0.0
2017-Nov-30 11:30N 40°40' W 074°09'0 0.0
2017-Nov-30 10:57N 40°40' W 074°09'0 0.0
2017-Nov-30 10:30N 40°40' W 074°09'0 0.0
2017-Nov-30 10:00N 40°40' W 074°09'0 0.0
2017-Nov-30 09:30N 40°40' W 074°09'0 0.0
2017-Nov-30 08:57N 40°40' W 074°09'0 0.0
2017-Nov-30 08:30N 40°40' W 074°09'0 0.0
2017-Nov-30 08:00N 40°40' W 074°09'0 0.0
2017-Nov-30 07:30N 40°40' W 074°09'0 0.0
2017-Nov-30 07:00N 40°40' W 074°09'0 0.0
2017-Nov-30 06:30N 40°40' W 074°09'0 0.0
2017-Nov-30 06:00N 40°40' W 074°09'0 0.0
2017-Nov-30 05:27N 40°40' W 074°09'0 0.0
2017-Nov-30 04:51N 40°40' W 074°09'0 0.0
2017-Nov-30 04:30N 40°40' W 074°09'0 0.0
2017-Nov-30 03:57N 40°40' W 074°09'0 0.0
2017-Nov-30 03:27N 40°40' W 074°09'0 0.0
2017-Nov-30 03:00N 40°40' W 074°09'0 0.0
2017-Nov-30 02:30N 40°40' W 074°09'0 0.0
2017-Nov-30 02:00N 40°40' W 074°09'0 0.0
2017-Nov-30 01:30N 40°40' W 074°09'0 0.0
2017-Nov-30 01:00N 40°40' W 074°09'0 0.0
2017-Nov-30 00:24N 40°40' W 074°09'0 0.0
2017-Nov-30 00:00N 40°40' W 074°09'1 1.2
2017-Nov-29 23:30N 40°40' W 074°08'1 2.7
2017-Nov-29 23:00N 40°42' W 074°08'0 0.5
2017-Nov-29 22:30N 40°42' W 074°08'0 0.0
2017-Nov-29 21:48N 40°42' W 074°08'0 0.0
2017-Nov-29 21:27N 40°42' W 074°08'0 0.0
2017-Nov-29 21:00N 40°42' W 074°08'0 0.0
2017-Nov-29 20:30N 40°42' W 074°08'0 0.0
2017-Nov-29 19:51N 40°42' W 074°08'0 0.0
2017-Nov-29 19:30N 40°42' W 074°08'0 0.0
2017-Nov-29 18:54N 40°42' W 074°08'0 0.0
2017-Nov-29 18:24N 40°42' W 074°08'0 0.0
2017-Nov-29 17:57N 40°42' W 074°08'0 0.0
2017-Nov-29 17:21N 40°42' W 074°08'0 0.0
2017-Nov-29 16:57N 40°42' W 074°08'0 0.1
2017-Nov-29 16:30N 40°42' W 074°08'3 5.5
2017-Nov-29 16:00N 40°39' W 074°09'3 6.0
2017-Nov-29 15:30N 40°39' W 074°05'4 7.5
2017-Nov-29 15:00N 40°36' W 074°02'611.6
2017-Nov-29 14:30N 40°31' W 073°59'510.2
2017-Nov-29 14:00N 40°28' W 073°53'4 8.8
2017-Nov-29 13:30N 40°27' W 073°47'4 7.3
2017-Nov-29 13:00N 40°27' W 073°42'4 7.1
2017-Nov-29 12:30N 40°27' W 073°38'4 7.3
2017-Nov-29 12:00N 40°28' W 073°33'713.5
2017-Nov-29 11:30N 40°29' W 073°24'815.8
2017-Nov-29 11:00N 40°30' W 073°14'  
Track history (hours):
 
Tides and Currents Weather Stations Pressure Air Temp Water Temp Dewpoint Dewpoint Depression Visibility Wind Speed Wind Dir Waves Ship Positions

Atlantic Sky

Last reported at 2017-Dec-04 10:30 UTC. Time now 2017-Dec-14 15:13 UTC.
Position N 36°51' W 076°20'.
Warning: this ship's position is 10 days out of date.

Length 296 m; draft 9.7 m.

Type: Cargo ship. MMSI: 235117615.

Date/timePositionNaut miles runAvg speedWind from/ knotsBaromVisibWave heightAir tempDewpointWater temp
2017-Dec-04 10:30N 36°51' W 076°20'0 0.2
2017-Dec-04 10:00N 36°51' W 076°20'1 1.2
2017-Dec-04 09:30N 36°52' W 076°20'4 8.5
2017-Dec-04 09:00N 36°56' W 076°20'810.4
2017-Dec-04 08:16N 36°60' W 076°12'415.3
2017-Dec-04 08:00N 36°59' W 076°07'612.5
2017-Dec-04 07:30N 36°57' W 075°59'4 7.8
2017-Dec-04 07:00N 37°00' W 076°01'1018.1
2017-Dec-04 06:28N 37°08' W 076°09'4916.0
2017-Dec-04 03:23N 37°57' W 076°11'717.5
2017-Dec-04 02:58N 38°04' W 076°13'4617.8
2017-Dec-04 00:24N 38°49' W 076°25'717.4
2017-Dec-04 00:00N 38°56' W 076°23'815.3
2017-Dec-03 23:30N 39°04' W 076°24'713.5
2017-Dec-03 23:00N 39°10' W 076°26'611.0
2017-Dec-03 22:30N 39°13' W 076°32'3 6.1
2017-Dec-03 22:00N 39°15' W 076°35'0 0.2
2017-Dec-03 21:30N 39°15' W 076°35'0 0.0
2017-Dec-03 21:00N 39°15' W 076°35'0 0.0
2017-Dec-03 20:30N 39°15' W 076°35'0 0.0
2017-Dec-03 20:00N 39°15' W 076°35'0 0.0
2017-Dec-03 19:30N 39°15' W 076°35'0 0.0
2017-Dec-03 19:00N 39°15' W 076°35'0 0.0
2017-Dec-03 18:30N 39°15' W 076°35'0 0.0
2017-Dec-03 18:00N 39°15' W 076°35'0 0.0
2017-Dec-03 17:30N 39°15' W 076°35'0 0.0
2017-Dec-03 17:00N 39°15' W 076°35'0 0.0
2017-Dec-03 16:30N 39°15' W 076°35'0 0.0
2017-Dec-03 16:00N 39°15' W 076°35'0 0.0
2017-Dec-03 15:30N 39°15' W 076°35'0 0.0
2017-Dec-03 15:00N 39°15' W 076°35'0 0.0
2017-Dec-03 14:30N 39°15' W 076°35'0 0.0
2017-Dec-03 14:00N 39°15' W 076°35'0 0.0
2017-Dec-03 13:27N 39°15' W 076°35'0 0.0
2017-Dec-03 13:00N 39°15' W 076°35'0 0.0
2017-Dec-03 12:30N 39°15' W 076°35'0 0.0
2017-Dec-03 12:00N 39°15' W 076°35'0 0.0
2017-Dec-03 11:30N 39°15' W 076°35'0 0.1
2017-Dec-03 11:01N 39°15' W 076°35'1 1.3
2017-Dec-03 10:30N 39°15' W 076°34'1 2.2
2017-Dec-03 10:01N 39°15' W 076°33'0 0.0
2017-Dec-03 09:31N 39°15' W 076°33'0 0.0
2017-Dec-03 08:57N 39°15' W 076°33'0 0.0
2017-Dec-03 08:27N 39°15' W 076°33'0 0.0
2017-Dec-03 07:58N 39°15' W 076°33'0 0.0
2017-Dec-03 07:31N 39°15' W 076°33'0 0.0
2017-Dec-03 07:00N 39°15' W 076°33'0 0.0
2017-Dec-03 06:28N 39°15' W 076°33'0 0.0
2017-Dec-03 05:58N 39°15' W 076°33'0 0.0
2017-Dec-03 05:27N 39°15' W 076°33'0 0.0
2017-Dec-03 04:58N 39°15' W 076°33'0 0.0
2017-Dec-03 04:31N 39°15' W 076°33'0 0.0
2017-Dec-03 04:00N 39°15' W 076°33'0 0.0
2017-Dec-03 03:31N 39°15' W 076°33'0 0.0
2017-Dec-03 03:01N 39°15' W 076°33'0 0.0
2017-Dec-03 02:30N 39°15' W 076°33'0 0.0
2017-Dec-03 02:00N 39°15' W 076°33'0 0.0
2017-Dec-03 01:24N 39°15' W 076°33'0 0.0
2017-Dec-03 01:00N 39°15' W 076°33'0 0.0
2017-Dec-03 00:30N 39°15' W 076°33'0 0.0
2017-Dec-03 00:00N 39°15' W 076°33'0 0.0
2017-Dec-02 23:30N 39°15' W 076°33'1 1.0
2017-Dec-02 23:00N 39°15' W 076°32'0 0.8
2017-Dec-02 22:28N 39°14' W 076°32'0 0.0
2017-Dec-02 21:58N 39°14' W 076°32'0 0.0
2017-Dec-02 21:28N 39°14' W 076°32'0 0.0
2017-Dec-02 20:58N 39°14' W 076°32'0 0.0
2017-Dec-02 20:28N 39°14' W 076°32'0 0.0
2017-Dec-02 19:58N 39°14' W 076°32'0 0.0
2017-Dec-02 19:28N 39°14' W 076°32'0 0.0
2017-Dec-02 18:58N 39°14' W 076°32'0 0.0
2017-Dec-02 18:28N 39°14' W 076°32'0 0.0
2017-Dec-02 17:58N 39°14' W 076°32'0 0.0
2017-Dec-02 17:28N 39°14' W 076°32'0 0.0
2017-Dec-02 16:58N 39°14' W 076°32'0 0.0
2017-Dec-02 16:28N 39°14' W 076°32'0 0.0
2017-Dec-02 15:58N 39°14' W 076°32'0 0.0
2017-Dec-02 15:28N 39°14' W 076°32'0 0.0
2017-Dec-02 14:58N 39°14' W 076°32'0 0.0
2017-Dec-02 14:28N 39°14' W 076°32'0 0.0
2017-Dec-02 13:58N 39°14' W 076°32'0 0.0
2017-Dec-02 13:28N 39°14' W 076°32'0 0.0
2017-Dec-02 12:55N 39°14' W 076°32'0 0.0
2017-Dec-02 12:28N 39°14' W 076°32'0 0.0
2017-Dec-02 11:58N 39°14' W 076°32'0 0.0
2017-Dec-02 11:28N 39°14' W 076°32'0 0.0
2017-Dec-02 10:58N 39°14' W 076°32'0 0.0
2017-Dec-02 10:28N 39°14' W 076°32'0 0.0
2017-Dec-02 09:58N 39°14' W 076°32'0 0.0
2017-Dec-02 09:25N 39°14' W 076°32'0 0.0
2017-Dec-02 08:58N 39°14' W 076°32'0 0.0
2017-Dec-02 08:28N 39°14' W 076°32'0 0.0
2017-Dec-02 07:58N 39°14' W 076°32'0 0.0
2017-Dec-02 07:28N 39°14' W 076°32'0 0.0
2017-Dec-02 06:58N 39°14' W 076°32'0 0.0
2017-Dec-02 06:28N 39°14' W 076°32'0 0.0
2017-Dec-02 05:58N 39°14' W 076°32'0 0.0
2017-Dec-02 05:28N 39°14' W 076°32'0 0.0
2017-Dec-02 04:58N 39°14' W 076°32'0 0.0
2017-Dec-02 04:28N 39°14' W 076°32'1 1.1
2017-Dec-02 04:01N 39°14' W 076°32'3 6.7
2017-Dec-02 03:31N 39°12' W 076°29'611.7
2017-Dec-02 03:00N 39°08' W 076°24'713.7
2017-Dec-02 02:29N 39°00' W 076°23'715.1
2017-Dec-02 02:00N 38°53' W 076°24'5116.2
2017-Dec-01 22:50N 38°02' W 076°13'6014.4
2017-Dec-01 18:42N 37°03' W 076°05'313.2
2017-Dec-01 18:30N 37°01' W 076°03'611.1
2017-Dec-01 18:00N 36°57' W 075°58'4 8.1
2017-Dec-01 17:30N 36°55' W 075°54'4 8.5
2017-Dec-01 17:00N 36°52' W 075°50'4 8.7
2017-Dec-01 16:30N 36°52' W 075°45'6312.6
2017-Dec-01 11:32N 37°43' W 074°58'015.4
2017-Dec-01 11:30N 37°43' W 074°57'1015.6
2017-Dec-01 10:54N 37°51' W 074°50'1215.3
2017-Dec-01 10:08N 38°01' W 074°42'6115.0
2017-Dec-01 06:06N 38°57' W 074°14'115.1
2017-Dec-01 06:00N 38°58' W 074°13'815.1
2017-Dec-01 05:29N 39°06' W 074°10'815.2
2017-Dec-01 04:57N 39°13' W 074°06'715.2
2017-Dec-01 04:31N 39°20' W 074°03'815.2
2017-Dec-01 04:00N 39°27' W 073°60'815.4
2017-Dec-01 03:31N 39°34' W 073°57'815.7
2017-Dec-01 03:00N 39°42' W 073°53'917.0
2017-Dec-01 02:30N 39°50' W 073°51'917.4
2017-Dec-01 02:00N 39°58' W 073°50'915.8
2017-Dec-01 01:25N 40°08' W 073°50'1910.3
2017-Nov-30 23:33N 40°27' W 073°49'0 8.1
2017-Nov-30 23:30N 40°27' W 073°49'5 9.2
2017-Nov-30 23:00N 40°29' W 073°55'611.6
2017-Nov-30 22:30N 40°32' W 074°01'612.7
2017-Nov-30 22:00N 40°38' W 074°03'4 7.3
2017-Nov-30 21:31N 40°39' W 074°08'1 2.6
2017-Nov-30 21:00N 40°40' W 074°09'0 0.0
2017-Nov-30 20:24N 40°40' W 074°09'0 0.0
2017-Nov-30 20:00N 40°40' W 074°09'0 0.0
2017-Nov-30 19:30N 40°40' W 074°09'0 0.0
2017-Nov-30 18:54N 40°40' W 074°09'0 0.0
2017-Nov-30 18:30N 40°40' W 074°09'0 0.0
2017-Nov-30 18:00N 40°40' W 074°09'0 0.0
2017-Nov-30 17:30N 40°40' W 074°09'0 0.0
2017-Nov-30 17:00N 40°40' W 074°09'0 0.0
2017-Nov-30 16:30N 40°40' W 074°09'0 0.0
2017-Nov-30 16:00N 40°40' W 074°09'0 0.0
2017-Nov-30 15:30N 40°40' W 074°09'0 0.0
2017-Nov-30 15:00N 40°40' W 074°09'0 0.0
2017-Nov-30 14:30N 40°40' W 074°09'0 0.0
2017-Nov-30 14:00N 40°40' W 074°09'0 0.0
2017-Nov-30 13:30N 40°40' W 074°09'0 0.0
2017-Nov-30 12:54N 40°40' W 074°09'0 0.0
2017-Nov-30 12:30N 40°40' W 074°09'0 0.0
2017-Nov-30 12:00N 40°40' W 074°09'0 0.0
2017-Nov-30 11:30N 40°40' W 074°09'0 0.0
2017-Nov-30 10:57N 40°40' W 074°09'0 0.0
2017-Nov-30 10:30N 40°40' W 074°09'0 0.0
2017-Nov-30 10:00N 40°40' W 074°09'0 0.0
2017-Nov-30 09:30N 40°40' W 074°09'0 0.0
2017-Nov-30 08:57N 40°40' W 074°09'0 0.0
2017-Nov-30 08:30N 40°40' W 074°09'0 0.0
2017-Nov-30 08:00N 40°40' W 074°09'0 0.0
2017-Nov-30 07:30N 40°40' W 074°09'0 0.0
2017-Nov-30 07:00N 40°40' W 074°09'0 0.0
2017-Nov-30 06:30N 40°40' W 074°09'0 0.0
2017-Nov-30 06:00N 40°40' W 074°09'0 0.0
2017-Nov-30 05:27N 40°40' W 074°09'0 0.0
2017-Nov-30 04:51N 40°40' W 074°09'0 0.0
2017-Nov-30 04:30N 40°40' W 074°09'0 0.0
2017-Nov-30 03:57N 40°40' W 074°09'0 0.0
2017-Nov-30 03:27N 40°40' W 074°09'0 0.0
2017-Nov-30 03:00N 40°40' W 074°09'0 0.0
2017-Nov-30 02:30N 40°40' W 074°09'0 0.0
2017-Nov-30 02:00N 40°40' W 074°09'0 0.0
2017-Nov-30 01:30N 40°40' W 074°09'0 0.0
2017-Nov-30 01:00N 40°40' W 074°09'0 0.0
2017-Nov-30 00:24N 40°40' W 074°09'0 0.0
2017-Nov-30 00:00N 40°40' W 074°09'1 1.2
2017-Nov-29 23:30N 40°40' W 074°08'1 2.7
2017-Nov-29 23:00N 40°42' W 074°08'0 0.5
2017-Nov-29 22:30N 40°42' W 074°08'0 0.0
2017-Nov-29 21:48N 40°42' W 074°08'0 0.0
2017-Nov-29 21:27N 40°42' W 074°08'0 0.0
2017-Nov-29 21:00N 40°42' W 074°08'0 0.0
2017-Nov-29 20:30N 40°42' W 074°08'0 0.0
2017-Nov-29 19:51N 40°42' W 074°08'0 0.0
2017-Nov-29 19:30N 40°42' W 074°08'0 0.0
2017-Nov-29 18:54N 40°42' W 074°08'0 0.0
2017-Nov-29 18:24N 40°42' W 074°08'0 0.0
2017-Nov-29 17:57N 40°42' W 074°08'0 0.0
2017-Nov-29 17:21N 40°42' W 074°08'0 0.0
2017-Nov-29 16:57N 40°42' W 074°08'0 0.1
2017-Nov-29 16:30N 40°42' W 074°08'3 5.5
2017-Nov-29 16:00N 40°39' W 074°09'3 6.0
2017-Nov-29 15:30N 40°39' W 074°05'4 7.5
2017-Nov-29 15:00N 40°36' W 074°02'611.6
2017-Nov-29 14:30N 40°31' W 073°59'510.2
2017-Nov-29 14:00N 40°28' W 073°53'4 8.8
2017-Nov-29 13:30N 40°27' W 073°47'4 7.3
2017-Nov-29 13:00N 40°27' W 073°42'4 7.1
2017-Nov-29 12:30N 40°27' W 073°38'4 7.3
2017-Nov-29 12:00N 40°28' W 073°33'713.5
2017-Nov-29 11:30N 40°29' W 073°24'815.8
2017-Nov-29 11:00N 40°30' W 073°14'  

Dump ship's entire track history